createdAt,value
2018-02-18T00:00:13.738Z,43.38
2018-02-18T00:02:43.169Z,44.85
2018-02-18T00:05:12.936Z,42.83
2018-02-18T00:07:42.097Z,44.35
2018-02-18T00:10:11.236Z,42.78
2018-02-18T00:12:40.561Z,43.30
2018-02-18T00:15:12.101Z,44.90
2018-02-18T00:17:41.178Z,45.45
2018-02-18T00:20:10.075Z,45.67
2018-02-18T00:22:39.394Z,45.58
2018-02-18T00:25:08.715Z,45.70
2018-02-18T00:27:38.045Z,46.78
2018-02-18T00:30:07.419Z,45.80
2018-02-18T00:32:36.880Z,48.15
2018-02-18T00:35:06.256Z,49.28
2018-02-18T00:37:35.600Z,51.40
2018-02-18T00:40:04.870Z,49.60
2018-02-18T00:42:33.857Z,47.85
2018-02-18T00:45:02.891Z,46.37
2018-02-18T00:47:31.902Z,43.20
2018-02-18T00:50:01.402Z,43.25
2018-02-18T00:52:30.756Z,37.63
2018-02-18T00:54:59.833Z,39.00
2018-02-18T00:57:29.204Z,37.50
2018-02-18T00:59:58.270Z,34.17
2018-02-18T01:02:27.634Z,33.83
2018-02-18T01:04:56.790Z,31.42
2018-02-18T01:07:26.395Z,32.05
2018-02-18T01:09:55.846Z,31.15
2018-02-18T01:12:25.418Z,31.98
2018-02-18T01:14:54.566Z,32.72
2018-02-18T01:17:23.755Z,33.92
2018-02-18T01:19:53.228Z,31.77
2018-02-18T01:22:22.731Z,31.17
2018-02-18T01:24:51.853Z,32.25
2018-02-18T01:27:21.106Z,31.40
2018-02-18T01:29:50.258Z,30.92
2018-02-18T01:32:19.423Z,31.02
2018-02-18T01:34:48.816Z,29.60
2018-02-18T01:37:17.905Z,32.45
2018-02-18T01:39:47.117Z,31.90
2018-02-18T01:42:16.698Z,32.65
2018-02-18T01:44:45.717Z,33.08
2018-02-18T01:47:14.871Z,32.60
2018-02-18T01:49:43.990Z,32.35
2018-02-18T01:52:13.343Z,32.33
2018-02-18T01:54:42.361Z,33.25
2018-02-18T01:57:11.351Z,34.60
2018-02-18T01:59:40.200Z,36.03
2018-02-18T02:02:09.083Z,34.88
2018-02-18T02:04:39.124Z,35.35
2018-02-18T02:07:08.182Z,33.88
2018-02-18T02:09:37.458Z,33.53
2018-02-18T02:12:06.739Z,36.08
2018-02-18T02:14:35.795Z,34.88
2018-02-18T02:17:04.754Z,36.05
2018-02-18T02:19:34.187Z,35.47
2018-02-18T02:22:03.466Z,34.65
2018-02-18T02:24:32.505Z,37.10
2018-02-18T02:27:01.675Z,38.35
2018-02-18T02:29:30.818Z,35.95
2018-02-18T02:32:00.102Z,38.75
2018-02-18T02:34:29.203Z,38.38
2018-02-18T02:36:58.355Z,38.65
2018-02-18T02:39:27.875Z,39.55
2018-02-18T02:41:57.137Z,39.45
2018-02-18T02:44:26.534Z,39.95
2018-02-18T02:46:56.084Z,39.17
2018-02-18T02:49:25.101Z,39.85
2018-02-18T02:51:54.677Z,38.92
2018-02-18T02:54:23.882Z,39.03
2018-02-18T02:56:53.170Z,39.70
2018-02-18T02:59:22.267Z,38.22
2018-02-18T03:01:51.397Z,41.90
2018-02-18T03:04:20.869Z,42.70
2018-02-18T03:06:49.897Z,40.78
2018-02-18T03:09:19.156Z,40.50
2018-02-18T03:11:48.474Z,43.30
2018-02-18T03:14:18.250Z,42.33
2018-02-18T03:16:47.483Z,41.42
2018-02-18T03:19:16.710Z,40.67
2018-02-18T03:21:45.984Z,41.20
2018-02-18T03:24:15.591Z,39.97
2018-02-18T03:26:44.870Z,37.67
2018-02-18T03:29:13.882Z,38.83
2018-02-18T03:31:43.266Z,37.30
2018-02-18T03:34:12.509Z,35.28
2018-02-18T03:36:41.417Z,34.70
2018-02-18T03:39:10.462Z,34.50
2018-02-18T03:41:39.838Z,34.67
2018-02-18T03:44:09.126Z,35.17
2018-02-18T03:46:38.298Z,35.08
2018-02-18T03:49:07.719Z,34.78
2018-02-18T03:51:37.378Z,35.47
2018-02-18T03:54:06.662Z,34.92
2018-02-18T03:56:35.977Z,35.05
2018-02-18T03:59:05.380Z,34.45
2018-02-18T04:01:34.680Z,35.65
2018-02-18T04:04:03.913Z,34.30
2018-02-18T04:06:44.352Z,35.38
2018-02-18T04:09:15.997Z,35.75
2018-02-18T04:11:44.989Z,36.95
2018-02-18T04:14:14.206Z,37.55
2018-02-18T04:16:43.527Z,37.90
2018-02-18T04:19:12.681Z,35.47
2018-02-18T04:21:41.813Z,37.20
2018-02-18T04:24:11.194Z,37.25
2018-02-18T04:26:40.635Z,42.42
2018-02-18T04:29:09.887Z,43.25
2018-02-18T04:31:39.121Z,42.25
2018-02-18T04:34:08.714Z,42.08
2018-02-18T04:36:37.711Z,42.90
2018-02-18T04:39:06.826Z,43.58
2018-02-18T04:41:35.978Z,42.28
2018-02-18T04:44:05.242Z,41.60
2018-02-18T04:46:34.918Z,42.67
2018-02-18T04:49:04.074Z,44.65
2018-02-18T04:51:33.114Z,45.12
2018-02-18T04:54:02.697Z,44.95
2018-02-18T04:56:31.950Z,46.50
2018-02-18T04:59:01.499Z,45.67
2018-02-18T05:01:30.688Z,47.10
2018-02-18T05:03:59.858Z,43.60
2018-02-18T05:06:28.714Z,46.42
2018-02-18T05:08:57.749Z,43.20
2018-02-18T05:11:26.939Z,48.08
2018-02-18T05:13:56.201Z,49.83
2018-02-18T05:16:25.626Z,48.70
2018-02-18T05:18:54.606Z,49.45
2018-02-18T05:21:23.869Z,49.43
2018-02-18T05:23:53.790Z,48.20
2018-02-18T05:26:23.527Z,50.92
2018-02-18T05:28:52.819Z,49.00
2018-02-18T05:31:21.830Z,52.35
2018-02-18T05:33:50.962Z,53.65
2018-02-18T05:36:19.949Z,51.85
2018-02-18T05:38:49.090Z,52.80
2018-02-18T05:41:18.171Z,52.10
2018-02-18T05:43:47.814Z,50.88
2018-02-18T05:46:17.213Z,49.67
2018-02-18T05:48:46.526Z,49.22
2018-02-18T05:51:15.990Z,47.80
2018-02-18T05:53:45.322Z,45.40
2018-02-18T05:56:14.715Z,46.25
2018-02-18T05:58:43.989Z,42.20
2018-02-18T06:01:13.021Z,43.63
2018-02-18T06:03:42.111Z,44.00
2018-02-18T06:06:11.446Z,43.28
2018-02-18T06:08:40.547Z,42.35
2018-02-18T06:11:09.872Z,44.30
2018-02-18T06:13:39.255Z,43.63
2018-02-18T06:16:08.339Z,42.60
2018-02-18T06:18:37.486Z,43.28
2018-02-18T06:21:06.865Z,43.28
2018-02-18T06:23:36.175Z,41.00
2018-02-18T06:26:05.411Z,43.87
2018-02-18T06:28:35.234Z,45.85
2018-02-18T06:31:04.492Z,49.83
2018-02-18T06:33:34.094Z,47.50
2018-02-18T06:36:03.367Z,50.42
2018-02-18T06:38:33.010Z,52.35
2018-02-18T06:41:02.298Z,50.12
2018-02-18T06:43:31.162Z,47.08
2018-02-18T06:46:00.707Z,44.67
2018-02-18T06:48:30.104Z,36.20
2018-02-18T06:50:59.363Z,31.37
2018-02-18T06:53:28.562Z,31.15
2018-02-18T06:55:57.907Z,31.15
2018-02-18T06:58:27.301Z,28.73
2018-02-18T07:00:56.561Z,28.17
2018-02-18T07:03:25.837Z,32.35
2018-02-18T07:05:54.999Z,27.87
2018-02-18T07:08:24.559Z,30.65
2018-02-18T07:10:53.838Z,31.70
2018-02-18T07:13:22.846Z,34.10
2018-02-18T07:15:51.841Z,42.13
2018-02-18T07:18:21.062Z,43.13
2018-02-18T07:20:50.389Z,41.37
2018-02-18T07:23:19.558Z,39.33
2018-02-18T07:25:48.522Z,40.80
2018-02-18T07:28:17.521Z,37.65
2018-02-18T07:30:46.837Z,37.78
2018-02-18T07:33:16.291Z,37.00
2018-02-18T07:35:45.587Z,39.72
2018-02-18T07:38:14.674Z,40.83
2018-02-18T07:40:44.341Z,42.42
2018-02-18T07:43:13.218Z,42.42
2018-02-18T07:45:42.519Z,42.88
2018-02-18T07:48:11.979Z,44.28
2018-02-18T07:50:41.113Z,47.72
2018-02-18T07:53:10.390Z,43.92
2018-02-18T07:55:39.694Z,42.90
2018-02-18T07:58:08.770Z,44.95
2018-02-18T08:00:38.178Z,46.90
2018-02-18T08:03:07.158Z,43.70
2018-02-18T08:05:36.153Z,38.28
2018-02-18T08:08:05.326Z,35.60
2018-02-18T08:10:34.768Z,38.58
2018-02-18T08:13:04.239Z,36.05
2018-02-18T08:15:33.361Z,34.67
2018-02-18T08:18:02.566Z,32.42
2018-02-18T08:20:32.081Z,32.92
2018-02-18T08:23:01.122Z,31.70
2018-02-18T08:25:30.011Z,32.17
2018-02-18T08:27:59.139Z,29.87
2018-02-18T08:30:28.182Z,29.90
2018-02-18T08:32:57.274Z,23.55
2018-02-18T08:35:26.393Z,22.87
2018-02-18T08:37:55.678Z,19.35
2018-02-18T08:40:24.946Z,23.65
2018-02-18T08:42:54.148Z,21.87
2018-02-18T08:45:23.653Z,18.05
2018-02-18T08:47:52.679Z,16.33
2018-02-18T08:50:22.218Z,17.35
2018-02-18T08:52:51.541Z,16.70
2018-02-18T08:55:20.751Z,19.02
2018-02-18T08:57:49.757Z,14.87
2018-02-18T09:00:19.027Z,16.60
2018-02-18T09:02:48.237Z,17.92
2018-02-18T09:05:17.542Z,16.40
2018-02-18T09:07:46.559Z,17.25
2018-02-18T09:10:15.679Z,18.62
2018-02-18T09:12:44.678Z,19.00
2018-02-18T09:15:13.818Z,20.20
2018-02-18T09:17:42.704Z,21.00
2018-02-18T09:20:12.120Z,21.42
2018-02-18T09:22:41.166Z,20.20
2018-02-18T09:25:10.189Z,19.42
2018-02-18T09:27:39.492Z,19.10
2018-02-18T09:30:08.663Z,18.50
2018-02-18T09:32:37.797Z,19.50
2018-02-18T09:35:08.048Z,19.17
2018-02-18T09:37:37.324Z,19.52
2018-02-18T09:40:06.619Z,19.52
2018-02-18T09:42:35.856Z,18.62
2018-02-18T09:45:05.430Z,18.48
2018-02-18T09:47:34.590Z,18.25
2018-02-18T09:50:03.931Z,18.33
2018-02-18T09:52:33.534Z,16.98
2018-02-18T09:55:02.549Z,17.87
2018-02-18T09:57:32.071Z,17.15
2018-02-18T10:00:01.054Z,17.58
2018-02-18T10:02:30.171Z,18.10
2018-02-18T10:04:59.417Z,18.90
2018-02-18T10:07:28.823Z,16.73
2018-02-18T10:09:57.693Z,16.33
2018-02-18T10:12:26.642Z,17.75
2018-02-18T10:14:56.212Z,15.02
2018-02-18T10:17:26.042Z,14.82
2018-02-18T10:19:55.625Z,14.60
2018-02-18T10:22:24.728Z,14.43
2018-02-18T10:24:53.966Z,14.02
2018-02-18T10:27:22.957Z,13.18
2018-02-18T10:29:52.161Z,14.18
2018-02-18T10:32:21.526Z,12.70
2018-02-18T10:34:56.798Z,13.20
2018-02-18T10:37:31.751Z,12.60
2018-02-18T10:40:01.202Z,13.90
2018-02-18T10:42:30.651Z,13.68
2018-02-18T10:45:00.013Z,14.87
2018-02-18T10:47:29.141Z,14.45
2018-02-18T10:49:58.262Z,14.05
2018-02-18T10:52:27.747Z,14.60
2018-02-18T10:54:57.113Z,13.60
2018-02-18T10:57:26.207Z,14.45
2018-02-18T10:59:55.401Z,13.80
2018-02-18T11:02:24.863Z,13.43
2018-02-18T11:04:54.010Z,13.70
2018-02-18T11:07:23.451Z,13.60
2018-02-18T11:09:52.646Z,11.95
2018-02-18T11:12:21.802Z,15.45
2018-02-18T11:14:50.901Z,14.50
2018-02-18T11:17:19.988Z,15.27
2018-02-18T11:19:49.236Z,14.32
2018-02-18T11:22:18.430Z,15.77
2018-02-18T11:24:48.001Z,15.35
2018-02-18T11:27:16.982Z,14.98
2018-02-18T11:29:46.510Z,15.75
2018-02-18T11:32:15.494Z,15.02
2018-02-18T11:34:44.698Z,16.10
2018-02-18T11:37:13.718Z,14.40
2018-02-18T11:39:42.627Z,16.65
2018-02-18T11:42:12.064Z,16.67
2018-02-18T11:44:41.627Z,16.58
2018-02-18T11:47:10.756Z,14.82
2018-02-18T11:49:40.343Z,14.35
2018-02-18T11:52:09.374Z,15.52
2018-02-18T11:54:38.582Z,14.13
2018-02-18T11:57:07.823Z,14.02
2018-02-18T11:59:37.346Z,12.13
2018-02-18T12:02:06.629Z,12.68
2018-02-18T12:04:35.984Z,12.95
2018-02-18T12:07:05.188Z,14.13
2018-02-18T12:09:34.324Z,13.82
2018-02-18T12:12:03.694Z,14.90
2018-02-18T12:14:32.999Z,13.38
2018-02-18T12:17:02.535Z,16.25
2018-02-18T12:19:31.837Z,16.15
2018-02-18T12:22:01.034Z,12.13
2018-02-18T12:24:30.806Z,15.25
2018-02-18T12:27:00.045Z,11.35
2018-02-18T12:29:29.315Z,12.48
2018-02-18T12:31:58.197Z,12.18
2018-02-18T12:34:27.471Z,10.57
2018-02-18T12:36:56.547Z,10.70
2018-02-18T12:39:25.662Z,11.48
2018-02-18T12:41:54.671Z,12.65
2018-02-18T12:44:23.913Z,11.85
2018-02-18T12:46:53.019Z,12.07
2018-02-18T12:49:22.322Z,11.88
2018-02-18T12:51:51.895Z,12.57
2018-02-18T12:54:21.228Z,12.77
2018-02-18T12:56:50.603Z,10.93
2018-02-18T12:59:19.982Z,12.90
2018-02-18T13:01:49.187Z,11.93
2018-02-18T13:04:18.221Z,11.77
2018-02-18T13:06:47.583Z,12.50
2018-02-18T13:09:17.104Z,12.57
2018-02-18T13:11:46.345Z,11.68
2018-02-18T13:14:15.693Z,11.07
2018-02-18T13:16:44.733Z,12.85
2018-02-18T13:19:13.891Z,10.95
2018-02-18T13:21:43.147Z,12.15
2018-02-18T13:24:12.218Z,11.80
2018-02-18T13:26:41.612Z,10.88
2018-02-18T13:29:10.998Z,12.03
2018-02-18T13:31:40.053Z,11.93
2018-02-18T13:34:09.396Z,11.20
2018-02-18T13:36:38.658Z,11.85
2018-02-18T13:39:08.022Z,10.85
2018-02-18T13:41:37.298Z,11.32
2018-02-18T13:44:06.594Z,11.88
2018-02-18T13:46:35.550Z,11.15
2018-02-18T13:49:04.699Z,11.68
2018-02-18T13:51:34.287Z,10.57
2018-02-18T13:54:03.622Z,10.82
2018-02-18T13:56:32.598Z,10.80
2018-02-18T13:59:01.926Z,10.98
2018-02-18T14:01:31.076Z,10.70
2018-02-18T14:04:00.007Z,10.95
2018-02-18T14:06:29.263Z,10.10
2018-02-18T14:08:58.334Z,11.70
2018-02-18T14:11:27.691Z,10.60
2018-02-18T14:13:56.962Z,12.90
2018-02-18T14:16:26.078Z,12.03
2018-02-18T14:18:55.679Z,16.83
2018-02-18T14:21:25.325Z,12.30
2018-02-18T14:23:54.302Z,17.93
2018-02-18T14:26:23.282Z,15.77
2018-02-18T14:28:52.360Z,15.57
2018-02-18T14:31:21.657Z,13.30
2018-02-18T14:33:50.743Z,12.50
2018-02-18T14:36:19.674Z,15.48
2018-02-18T14:38:48.686Z,13.35
2018-02-18T14:41:29.203Z,13.13
2018-02-18T14:44:09.543Z,12.27
2018-02-18T14:46:50.090Z,11.57
2018-02-18T14:49:30.394Z,12.30
2018-02-18T14:52:10.651Z,14.38
2018-02-18T14:57:44.777Z,14.45
2018-02-18T15:00:13.850Z,13.57
2018-02-18T15:02:43.482Z,12.20
2018-02-18T15:05:12.811Z,12.63
2018-02-18T15:07:42.291Z,13.02
2018-02-18T15:10:12.434Z,12.95
2018-02-18T15:12:41.875Z,12.60
2018-02-18T15:15:10.966Z,12.48
2018-02-18T15:17:40.194Z,13.07
2018-02-18T15:20:09.194Z,13.50
2018-02-18T15:22:38.576Z,11.77
2018-02-18T15:25:07.846Z,12.55
2018-02-18T15:27:36.982Z,13.10
2018-02-18T15:30:06.050Z,13.23
2018-02-18T15:32:35.325Z,13.62
2018-02-18T15:35:04.409Z,13.35
2018-02-18T15:37:33.562Z,13.43
2018-02-18T15:40:03.103Z,13.93
2018-02-18T15:42:32.401Z,14.40
2018-02-18T15:45:01.702Z,13.07
2018-02-18T15:47:30.694Z,14.27
2018-02-18T15:49:59.638Z,15.23
2018-02-18T15:52:28.493Z,14.93
2018-02-18T15:54:57.854Z,13.40
2018-02-18T15:57:26.731Z,13.25
2018-02-18T15:59:55.598Z,12.10
2018-02-18T16:02:24.575Z,15.15
2018-02-18T16:04:53.997Z,13.30
2018-02-18T16:07:23.127Z,15.05
2018-02-18T16:09:52.013Z,13.93
2018-02-18T16:12:21.075Z,13.75
2018-02-18T16:14:50.378Z,17.37
2018-02-18T16:17:19.554Z,22.65
2018-02-18T16:19:49.638Z,19.02
2018-02-18T16:22:19.059Z,15.80
2018-02-18T16:24:48.336Z,14.98
2018-02-18T16:27:17.674Z,14.50
2018-02-18T16:29:46.947Z,19.65
2018-02-18T16:32:20.911Z,14.23
2018-02-18T16:34:55.227Z,15.15
2018-02-18T16:37:24.479Z,14.98
2018-02-18T16:39:53.562Z,17.92
2018-02-18T16:42:22.866Z,16.85
2018-02-18T16:44:52.246Z,15.77
2018-02-18T16:47:21.611Z,15.13
2018-02-18T16:49:51.202Z,16.55
2018-02-18T16:52:20.470Z,15.27
2018-02-18T16:54:49.586Z,15.98
2018-02-18T16:57:18.696Z,16.15
2018-02-18T16:59:47.611Z,15.43
2018-02-18T17:02:17.054Z,15.73
2018-02-18T17:04:46.165Z,16.95
2018-02-18T17:07:15.213Z,17.83
2018-02-18T17:09:44.401Z,16.42
2018-02-18T17:12:13.335Z,16.25
2018-02-18T17:14:42.466Z,14.07
2018-02-18T17:17:11.773Z,14.52
2018-02-18T17:19:40.980Z,14.75
2018-02-18T17:22:10.354Z,13.73
2018-02-18T17:24:39.680Z,14.35
2018-02-18T17:27:08.961Z,14.75
2018-02-18T17:29:38.132Z,13.40
2018-02-18T17:32:07.467Z,13.93
2018-02-18T17:34:36.731Z,14.63
2018-02-18T17:37:05.639Z,16.10
2018-02-18T17:39:34.959Z,15.05
2018-02-18T17:42:04.167Z,15.55
2018-02-18T17:44:33.429Z,15.93
2018-02-18T17:47:02.606Z,14.60
2018-02-18T17:49:31.791Z,15.75
2018-02-18T17:52:01.339Z,15.95
2018-02-18T17:54:30.982Z,15.45
2018-02-18T17:57:00.138Z,15.32
2018-02-18T17:59:29.302Z,15.00
2018-02-18T18:01:58.334Z,15.65
2018-02-18T18:04:27.319Z,16.15
2018-02-18T18:06:56.555Z,15.50
2018-02-18T18:09:25.864Z,16.52
2018-02-18T18:11:55.115Z,16.62
2018-02-18T18:14:23.965Z,15.25
2018-02-18T18:16:53.024Z,14.70
2018-02-18T18:19:22.298Z,14.95
2018-02-18T18:21:51.638Z,15.57
2018-02-18T18:24:20.660Z,13.88
2018-02-18T18:26:49.991Z,15.75
2018-02-18T18:29:19.078Z,19.15
2018-02-18T18:31:48.476Z,17.08
2018-02-18T18:34:17.635Z,16.75
2018-02-18T18:36:46.606Z,16.37
2018-02-18T18:39:15.558Z,15.48
2018-02-18T18:41:44.746Z,17.73
2018-02-18T18:44:13.957Z,20.40
2018-02-18T18:46:42.971Z,17.08
2018-02-18T18:49:12.206Z,16.00
2018-02-18T18:51:41.197Z,16.37
2018-02-18T18:54:10.467Z,16.37
2018-02-18T18:56:39.458Z,14.52
2018-02-18T18:59:08.490Z,14.10
2018-02-18T19:01:37.551Z,17.58
2018-02-18T19:04:07.106Z,18.62
2018-02-18T19:06:36.202Z,15.75
2018-02-18T19:09:05.531Z,84.75
2018-02-18T19:11:34.694Z,17.05
2018-02-18T19:14:03.713Z,15.20
2018-02-18T19:16:32.984Z,17.37
2018-02-18T19:19:02.315Z,17.37
2018-02-18T19:21:31.399Z,18.00
2018-02-18T19:24:00.654Z,19.20
2018-02-18T19:26:30.543Z,16.80
2018-02-18T19:28:59.667Z,17.37
2018-02-18T19:31:28.554Z,17.17
2018-02-18T19:33:58.035Z,15.68
2018-02-18T19:36:27.069Z,15.00
2018-02-18T19:38:56.199Z,15.48
2018-02-18T19:41:25.307Z,15.85
2018-02-18T19:43:54.424Z,16.60
2018-02-18T19:46:23.838Z,16.87
2018-02-18T19:48:53.139Z,15.88
2018-02-18T19:51:22.688Z,16.10
2018-02-18T19:53:51.666Z,17.12
2018-02-18T19:56:21.280Z,16.77
2018-02-18T19:58:50.764Z,18.75
2018-02-18T20:01:19.770Z,18.25
2018-02-18T20:03:48.783Z,18.62
2018-02-18T20:06:17.960Z,17.35
2018-02-18T20:08:47.281Z,19.92
2018-02-18T20:11:16.315Z,19.45
2018-02-18T20:13:45.790Z,17.08
2018-02-18T20:16:15.172Z,17.70
2018-02-18T20:18:44.282Z,17.58
2018-02-18T20:21:13.594Z,18.30
2018-02-18T20:23:42.902Z,18.42
2018-02-18T20:26:12.171Z,18.87
2018-02-18T20:28:41.449Z,17.62
2018-02-18T20:31:10.637Z,17.50
2018-02-18T20:33:39.703Z,15.20
2018-02-18T20:36:09.107Z,17.02
2018-02-18T20:38:38.171Z,15.82
2018-02-18T20:41:07.398Z,16.23
2018-02-18T20:43:36.631Z,15.65
2018-02-18T20:46:06.097Z,14.55
2018-02-18T20:48:36.031Z,13.82
2018-02-18T20:51:05.266Z,14.77
2018-02-18T20:53:34.572Z,15.73
2018-02-18T20:56:03.891Z,13.82
2018-02-18T20:58:32.909Z,17.73
2018-02-18T21:01:01.986Z,14.27
2018-02-18T21:03:31.183Z,14.23
2018-02-18T21:06:00.099Z,15.13
2018-02-18T21:08:29.500Z,15.52
2018-02-18T21:10:59.073Z,13.23
2018-02-18T21:13:28.367Z,12.35
2018-02-18T21:15:57.542Z,12.18
2018-02-18T21:18:26.880Z,13.40
2018-02-18T21:20:55.922Z,14.15
2018-02-18T21:23:25.097Z,13.88
2018-02-18T21:25:54.476Z,14.05
2018-02-18T21:28:23.878Z,13.85
2018-02-18T21:30:53.017Z,14.93
2018-02-18T21:33:22.033Z,15.52
2018-02-18T21:35:51.293Z,15.30
2018-02-18T21:38:20.598Z,15.02
2018-02-18T21:40:49.966Z,15.82
2018-02-18T21:43:19.193Z,13.90
2018-02-18T21:45:48.139Z,12.95
2018-02-18T21:48:17.555Z,13.20
2018-02-18T21:50:46.765Z,13.90
2018-02-18T21:53:16.063Z,12.25
2018-02-18T21:55:45.457Z,13.02
2018-02-18T21:58:14.544Z,18.33
2018-02-18T22:00:43.866Z,13.18
2018-02-18T22:03:13.014Z,13.75
2018-02-18T22:05:42.710Z,13.65
2018-02-18T22:08:11.793Z,14.60
2018-02-18T22:10:41.470Z,14.35
2018-02-18T22:13:10.743Z,15.43
2018-02-18T22:15:39.943Z,14.15
2018-02-18T22:18:09.135Z,14.82
2018-02-18T22:20:38.389Z,13.38
2018-02-18T22:23:08.277Z,14.02
2018-02-18T22:25:37.371Z,13.50
2018-02-18T22:28:06.619Z,13.95
2018-02-18T22:30:35.770Z,13.62
2018-02-18T22:33:04.945Z,13.68
2018-02-18T22:35:34.287Z,13.48
2018-02-18T22:38:04.024Z,13.50
2018-02-18T22:40:34.303Z,13.90
2018-02-18T22:43:03.822Z,13.65
2018-02-18T22:45:33.216Z,12.23
2018-02-18T22:48:02.383Z,12.35
2018-02-18T22:50:31.826Z,14.25
2018-02-18T22:53:01.431Z,13.18
2018-02-18T22:55:30.835Z,13.23
2018-02-18T22:57:59.962Z,12.93
2018-02-18T23:00:29.118Z,12.88
2018-02-18T23:02:58.457Z,13.38
2018-02-18T23:05:32.867Z,12.80
2018-02-18T23:08:02.083Z,12.32
2018-02-18T23:10:31.126Z,12.55
2018-02-18T23:13:00.151Z,12.15
2018-02-18T23:15:29.371Z,12.43
2018-02-18T23:17:58.367Z,12.32
2018-02-18T23:20:33.258Z,11.35
2018-02-18T23:23:02.090Z,10.55
2018-02-18T23:25:31.540Z,11.52
2018-02-18T23:28:00.539Z,11.50
2018-02-18T23:30:29.699Z,12.30
2018-02-18T23:32:58.739Z,12.60
2018-02-18T23:35:27.935Z,12.10
2018-02-18T23:37:57.061Z,11.85
2018-02-18T23:40:26.505Z,13.07
2018-02-18T23:42:56.049Z,13.40
2018-02-18T23:45:25.405Z,13.25
2018-02-18T23:47:55.158Z,13.70
2018-02-18T23:50:24.415Z,13.40
2018-02-18T23:52:53.474Z,14.05
2018-02-18T23:55:22.845Z,13.70
2018-02-18T23:57:52.029Z,15.15
